createdAt,value
2023-04-18T00:01:23.887Z,56.45
2023-04-18T00:03:51.272Z,56.07
2023-04-18T00:06:18.116Z,55.75
2023-04-18T00:08:44.659Z,55.46
2023-04-18T00:11:11.143Z,56.25
2023-04-18T00:13:39.329Z,55.57
2023-04-18T00:16:07.957Z,55.19
2023-04-18T00:18:36.777Z,56.13
2023-04-18T00:21:11.584Z,55.81
2023-04-18T00:23:38.540Z,55.69
2023-04-18T00:26:11.662Z,56.08
2023-04-18T00:28:38.146Z,55.96
2023-04-18T00:31:12.876Z,55.36
2023-04-18T00:33:39.393Z,55.27
2023-04-18T00:36:06.204Z,55.92
2023-04-18T00:38:35.354Z,55.74
2023-04-18T00:41:02.153Z,55.59
2023-04-18T00:43:28.607Z,55.42
2023-04-18T00:45:57.026Z,55.92
2023-04-18T00:48:28.171Z,56.01
2023-04-18T00:50:55.751Z,56.67
2023-04-18T00:53:22.804Z,56.18
2023-04-18T00:55:49.832Z,56.23
2023-04-18T00:58:16.860Z,56.05
2023-04-18T01:00:43.927Z,55.67
2023-04-18T01:03:10.713Z,55.50
2023-04-18T01:05:38.175Z,55.52
2023-04-18T01:08:20.147Z,55.36
2023-04-18T01:10:46.792Z,55.49
2023-04-18T01:13:30.003Z,56.31
2023-04-18T01:15:56.511Z,56.10
2023-04-18T01:18:27.210Z,56.08
2023-04-18T01:21:03.354Z,55.69
2023-04-18T01:23:30.629Z,55.77
2023-04-18T01:26:09.154Z,56.10
2023-04-18T01:28:39.350Z,56.82
2023-04-18T01:31:05.960Z,56.85
2023-04-18T01:33:32.436Z,56.87
2023-04-18T01:35:58.905Z,57.17
2023-04-18T01:38:25.395Z,57.42
2023-04-18T01:40:51.905Z,57.77
2023-04-18T01:43:41.830Z,57.58
2023-04-18T01:46:08.318Z,57.41
2023-04-18T01:48:53.130Z,57.77
2023-04-18T01:51:19.707Z,57.16
2023-04-18T01:53:46.180Z,56.41
2023-04-18T01:56:12.742Z,56.16
2023-04-18T01:58:39.358Z,56.74
2023-04-18T02:01:05.824Z,56.87
2023-04-18T02:03:32.507Z,56.75
2023-04-18T02:06:01.415Z,56.66
2023-04-18T02:08:32.874Z,56.42
2023-04-18T02:11:00.947Z,56.79
2023-04-18T02:13:27.994Z,56.45
2023-04-18T02:15:54.485Z,56.75
2023-04-18T02:18:22.009Z,57.40
2023-04-18T02:20:49.588Z,57.66
2023-04-18T02:23:16.067Z,58.08
2023-04-18T02:25:42.638Z,58.30
2023-04-18T02:28:09.203Z,58.36
2023-04-18T02:30:41.728Z,57.95
2023-04-18T02:33:14.973Z,57.77
2023-04-18T02:35:41.494Z,58.34
2023-04-18T02:38:07.988Z,57.69
2023-04-18T02:40:37.284Z,57.48
2023-04-18T02:43:03.861Z,57.81
2023-04-18T02:45:30.350Z,57.13
2023-04-18T02:47:57.019Z,57.03
2023-04-18T02:50:24.915Z,57.29
2023-04-18T02:52:51.684Z,57.41
2023-04-18T02:55:18.414Z,57.87
2023-04-18T02:57:44.964Z,57.55
2023-04-18T03:00:13.488Z,57.32
2023-04-18T03:02:40.074Z,56.92
2023-04-18T03:05:07.329Z,56.96
2023-04-18T03:07:33.955Z,56.76
2023-04-18T03:10:07.000Z,57.33
2023-04-18T03:12:33.612Z,58.06
2023-04-18T03:15:00.136Z,58.13
2023-04-18T03:17:26.655Z,59.00
2023-04-18T03:19:53.119Z,58.79
2023-04-18T03:22:19.893Z,58.79
2023-04-18T03:24:46.436Z,59.39
2023-04-18T03:27:19.047Z,59.21
2023-04-18T03:29:45.564Z,58.50
2023-04-18T03:32:12.561Z,58.39
2023-04-18T03:34:39.005Z,58.46
2023-04-18T03:37:05.536Z,58.38
2023-04-18T03:39:32.294Z,59.40
2023-04-18T03:42:01.962Z,59.50
2023-04-18T03:44:28.513Z,59.06
2023-04-18T03:46:55.879Z,59.24
2023-04-18T03:49:22.364Z,59.18
2023-04-18T03:51:57.973Z,59.73
2023-04-18T03:54:24.448Z,59.54
2023-04-18T03:56:51.015Z,59.88
2023-04-18T03:59:17.447Z,59.55
2023-04-18T04:01:43.948Z,59.60
2023-04-18T04:04:11.930Z,59.52
2023-04-18T04:06:53.082Z,60.41
2023-04-18T04:09:19.629Z,60.12
2023-04-18T04:11:46.116Z,60.27
2023-04-18T04:14:26.707Z,59.60
2023-04-18T04:16:53.292Z,59.32
2023-04-18T04:19:19.761Z,59.63
2023-04-18T04:21:46.236Z,59.11
2023-04-18T04:24:13.684Z,59.07
2023-04-18T04:26:42.601Z,59.74
2023-04-18T04:29:10.651Z,59.91
2023-04-18T04:31:37.192Z,60.04
2023-04-18T04:34:04.855Z,60.09
2023-04-18T04:36:42.096Z,60.76
2023-04-18T04:39:09.914Z,61.15
2023-04-18T04:41:37.575Z,61.14
2023-04-18T04:44:04.679Z,61.15
2023-04-18T04:46:31.773Z,61.44
2023-04-18T04:48:58.295Z,62.48
2023-04-18T04:51:24.926Z,61.87
2023-04-18T04:53:51.701Z,61.74
2023-04-18T04:56:18.566Z,61.93
2023-04-18T04:58:45.227Z,61.83
2023-04-18T05:01:12.919Z,61.20
2023-04-18T05:03:39.690Z,61.53
2023-04-18T05:06:06.509Z,61.83
2023-04-18T05:08:32.995Z,61.49
2023-04-18T05:10:59.538Z,61.32
2023-04-18T05:13:26.096Z,61.05
2023-04-18T05:15:52.569Z,61.24
2023-04-18T05:18:19.123Z,61.05
2023-04-18T05:20:45.775Z,61.07
2023-04-18T05:23:12.263Z,61.29
2023-04-18T05:25:38.955Z,60.40
2023-04-18T05:28:05.525Z,60.54
2023-04-18T05:30:32.063Z,60.27
2023-04-18T05:32:58.637Z,60.21
2023-04-18T05:35:25.339Z,60.66
2023-04-18T05:37:51.918Z,60.70
2023-04-18T05:40:18.430Z,60.01
2023-04-18T05:42:44.965Z,59.99
2023-04-18T05:45:11.882Z,59.90
2023-04-18T05:47:38.443Z,60.22
2023-04-18T05:50:06.481Z,59.87
2023-04-18T05:52:33.151Z,59.24
2023-04-18T05:54:59.654Z,58.94
2023-04-18T05:57:26.097Z,58.68
2023-04-18T05:59:52.552Z,58.71
2023-04-18T06:02:19.047Z,59.18
2023-04-18T06:04:45.776Z,58.95
2023-04-18T06:07:12.416Z,58.63
2023-04-18T06:09:38.938Z,58.29
2023-04-18T06:12:05.719Z,58.45
2023-04-18T06:14:32.346Z,58.38
2023-04-18T06:16:58.940Z,58.33
2023-04-18T06:19:25.609Z,58.21
2023-04-18T06:21:53.096Z,58.33
2023-04-18T06:24:19.697Z,58.10
2023-04-18T06:26:46.464Z,57.68
2023-04-18T06:29:13.049Z,57.28
2023-04-18T06:31:39.659Z,57.02
2023-04-18T06:34:06.282Z,57.14
2023-04-18T06:36:32.947Z,57.21
2023-04-18T06:38:59.463Z,57.17
2023-04-18T06:41:25.977Z,57.07
2023-04-18T06:46:26.260Z,56.79
2023-04-18T06:48:52.845Z,56.46
2023-04-18T06:51:19.317Z,56.35
2023-04-18T06:53:45.968Z,56.32
2023-04-18T06:56:12.620Z,56.11
2023-04-18T06:58:39.176Z,56.28
2023-04-18T07:01:05.713Z,56.04
2023-04-18T07:03:32.272Z,56.18
2023-04-18T07:05:58.879Z,55.45
2023-04-18T07:08:25.404Z,55.69
2023-04-18T07:10:51.900Z,55.41
2023-04-18T07:13:18.430Z,55.45
2023-04-18T07:15:45.004Z,55.22
2023-04-18T07:18:11.898Z,55.17
2023-04-18T07:20:40.231Z,55.20
2023-04-18T07:23:06.783Z,54.96
2023-04-18T07:25:33.432Z,55.31
2023-04-18T07:27:59.950Z,55.29
2023-04-18T07:30:26.434Z,55.28
2023-04-18T07:32:53.046Z,54.52
2023-04-18T07:35:19.676Z,54.43
2023-04-18T07:37:46.507Z,53.98
2023-04-18T07:40:13.727Z,53.97
2023-04-18T07:42:40.346Z,54.39
2023-04-18T07:45:07.378Z,54.05
2023-04-18T07:47:33.956Z,54.58
2023-04-18T07:50:00.572Z,54.14
2023-04-18T07:52:27.167Z,54.10
2023-04-18T07:54:53.684Z,54.37
2023-04-18T07:57:20.358Z,53.93
2023-04-18T07:59:46.835Z,54.53
2023-04-18T08:02:13.407Z,54.72
2023-04-18T08:04:40.016Z,54.07
2023-04-18T08:07:06.594Z,54.41
2023-04-18T08:09:34.138Z,54.38
2023-04-18T08:12:00.593Z,54.13
2023-04-18T08:14:27.054Z,54.28
2023-04-18T08:16:53.533Z,53.35
2023-04-18T08:19:20.186Z,53.71
2023-04-18T08:21:46.950Z,54.14
2023-04-18T08:24:13.443Z,53.81
2023-04-18T08:26:40.000Z,53.58
2023-04-18T08:29:06.528Z,53.59
2023-04-18T08:31:33.155Z,53.57
2023-04-18T08:33:59.758Z,53.71
2023-04-18T08:36:26.698Z,53.46
2023-04-18T08:38:53.295Z,52.90
2023-04-18T08:41:24.671Z,53.34
2023-04-18T08:43:51.195Z,53.52
2023-04-18T08:46:18.878Z,52.96
2023-04-18T08:48:50.035Z,53.41
2023-04-18T08:51:16.532Z,53.31
2023-04-18T08:53:44.982Z,53.22
2023-04-18T08:56:14.528Z,53.04
2023-04-18T08:58:41.056Z,52.98
2023-04-18T09:01:07.589Z,52.44
2023-04-18T09:03:43.185Z,52.72
2023-04-18T09:06:16.302Z,52.52
2023-04-18T09:08:44.362Z,52.68
2023-04-18T09:11:28.920Z,52.72
2023-04-18T09:13:58.804Z,53.00
2023-04-18T09:16:27.701Z,52.54
2023-04-18T09:19:18.428Z,51.80
2023-04-18T09:21:50.099Z,52.57
2023-04-18T09:24:20.678Z,52.14
2023-04-18T09:26:49.807Z,51.34
2023-04-18T09:29:18.456Z,51.79
2023-04-18T09:32:01.234Z,51.69
2023-04-18T09:34:29.128Z,51.77
2023-04-18T09:37:15.952Z,51.22
2023-04-18T09:39:44.297Z,51.58
2023-04-18T09:42:11.331Z,51.43
2023-04-18T09:44:39.452Z,51.32
2023-04-18T09:47:07.844Z,51.19
2023-04-18T09:49:35.063Z,51.05
2023-04-18T09:52:07.381Z,50.67
2023-04-18T09:54:38.360Z,50.65
2023-04-18T09:57:11.939Z,50.51
2023-04-18T10:00:00.015Z,50.13
2023-04-18T10:02:35.250Z,50.03
2023-04-18T10:05:08.188Z,49.58
2023-04-18T10:07:35.346Z,50.01
2023-04-18T10:10:01.987Z,49.71
2023-04-18T10:12:28.723Z,49.56
2023-04-18T10:14:56.152Z,48.95
2023-04-18T10:17:22.728Z,48.63
2023-04-18T10:20:06.648Z,47.79
2023-04-18T10:22:33.251Z,48.74
2023-04-18T10:24:59.776Z,48.21
2023-04-18T10:27:56.449Z,46.56
2023-04-18T10:30:45.557Z,48.17
2023-04-18T10:33:42.382Z,47.71
2023-04-18T10:36:09.313Z,47.81
2023-04-18T10:38:45.185Z,48.24
2023-04-18T10:41:27.081Z,48.18
2023-04-18T10:44:09.516Z,47.54
2023-04-18T10:46:36.996Z,47.68
2023-04-18T10:49:26.780Z,47.91
2023-04-18T10:51:59.547Z,47.67
2023-04-18T10:54:38.712Z,48.00
2023-04-18T10:57:08.830Z,47.55
2023-04-18T10:59:43.785Z,46.52
2023-04-18T11:02:30.173Z,46.36
2023-04-18T11:05:04.569Z,47.01
2023-04-18T11:07:48.384Z,46.65
2023-04-18T11:10:25.320Z,47.15
2023-04-18T11:12:53.358Z,46.73
2023-04-18T11:15:24.414Z,46.49
2023-04-18T11:18:03.741Z,46.47
2023-04-18T11:20:39.274Z,46.43
2023-04-18T11:23:24.861Z,46.19
2023-04-18T11:25:54.278Z,46.80
2023-04-18T11:28:25.345Z,46.70
2023-04-18T11:30:51.843Z,46.38
2023-04-18T11:33:18.357Z,46.25
2023-04-18T11:35:46.514Z,46.35
2023-04-18T11:38:15.844Z,46.09
2023-04-18T11:40:51.554Z,45.24
2023-04-18T11:43:24.420Z,46.53
2023-04-18T11:46:00.106Z,46.08
2023-04-18T11:48:40.563Z,46.17
2023-04-18T11:51:29.074Z,45.71
2023-04-18T11:53:55.540Z,45.58
2023-04-18T11:56:21.995Z,45.45
2023-04-18T11:58:48.521Z,45.51
2023-04-18T12:01:20.018Z,45.32
2023-04-18T12:04:07.892Z,43.89
2023-04-18T12:06:53.321Z,43.55
2023-04-18T12:09:26.667Z,45.17
2023-04-18T12:12:03.965Z,44.06
2023-04-18T12:14:30.732Z,44.94
2023-04-18T12:16:57.301Z,44.76
2023-04-18T12:19:29.251Z,44.45
2023-04-18T12:22:01.962Z,44.66
2023-04-18T12:24:29.166Z,44.98
2023-04-18T12:26:57.718Z,45.11
2023-04-18T12:29:25.609Z,44.84
2023-04-18T12:31:52.220Z,44.57
2023-04-18T12:34:18.825Z,44.54
2023-04-18T12:36:45.975Z,44.74
2023-04-18T12:39:12.794Z,44.24
2023-04-18T12:41:44.880Z,44.44
2023-04-18T12:44:11.609Z,44.50
2023-04-18T12:46:38.301Z,44.20
2023-04-18T12:49:04.855Z,43.86
2023-04-18T12:51:31.419Z,44.02
2023-04-18T12:53:57.900Z,44.20
2023-04-18T12:56:24.418Z,44.14
2023-04-18T12:58:51.007Z,44.15
2023-04-18T13:01:18.021Z,44.02
2023-04-18T13:03:48.574Z,44.00
2023-04-18T13:06:20.263Z,44.28
2023-04-18T13:08:47.390Z,44.51
2023-04-18T13:11:13.916Z,43.00
2023-04-18T13:13:40.397Z,42.66
2023-04-18T13:16:07.111Z,42.55
2023-04-18T13:18:33.860Z,42.49
2023-04-18T13:21:00.443Z,43.02
2023-04-18T13:23:26.955Z,42.61
2023-04-18T13:25:54.660Z,42.76
2023-04-18T13:28:21.250Z,43.17
2023-04-18T13:30:47.778Z,42.69
2023-04-18T13:33:15.364Z,42.89
2023-04-18T13:35:41.868Z,43.29
2023-04-18T13:38:08.377Z,42.96
2023-04-18T13:40:34.896Z,42.98
2023-04-18T13:43:01.433Z,42.71
2023-04-18T13:45:28.008Z,43.05
2023-04-18T13:47:54.825Z,42.34
2023-04-18T13:50:22.954Z,42.05
2023-04-18T13:52:53.513Z,42.18
2023-04-18T13:55:22.732Z,41.17
2023-04-18T13:57:49.187Z,41.26
2023-04-18T14:00:16.866Z,41.51
2023-04-18T14:02:43.631Z,41.79
2023-04-18T14:05:10.649Z,42.24
2023-04-18T14:07:38.374Z,41.74
2023-04-18T14:10:05.721Z,41.79
2023-04-18T14:12:32.260Z,41.77
2023-04-18T14:14:58.777Z,42.26
2023-04-18T14:17:25.319Z,42.15
2023-04-18T14:19:52.044Z,42.22
2023-04-18T14:22:18.632Z,42.55
2023-04-18T14:24:45.359Z,42.16
2023-04-18T14:27:11.897Z,42.19
2023-04-18T14:29:38.434Z,42.49
2023-04-18T14:32:05.773Z,42.24
2023-04-18T14:34:33.973Z,41.68
2023-04-18T14:37:01.486Z,41.39
2023-04-18T14:39:28.056Z,40.19
2023-04-18T14:41:54.800Z,40.94
2023-04-18T14:44:21.656Z,41.18
2023-04-18T14:46:48.229Z,41.72
2023-04-18T14:49:15.016Z,42.18
2023-04-18T14:51:41.672Z,42.33
2023-04-18T14:54:08.312Z,41.25
2023-04-18T14:56:34.759Z,40.21
2023-04-18T14:59:02.429Z,40.22
2023-04-18T15:01:29.267Z,40.66
2023-04-18T15:03:55.983Z,40.92
2023-04-18T15:06:23.212Z,40.88
2023-04-18T15:08:49.725Z,40.65
2023-04-18T15:11:16.162Z,39.81
2023-04-18T15:13:42.675Z,39.30
2023-04-18T15:16:09.242Z,39.07
2023-04-18T15:18:35.766Z,39.65
2023-04-18T15:21:02.373Z,40.39
2023-04-18T15:23:29.002Z,40.10
2023-04-18T15:25:56.319Z,40.25
2023-04-18T15:28:23.094Z,40.57
2023-04-18T15:30:49.653Z,41.21
2023-04-18T15:33:22.115Z,41.45
2023-04-18T15:35:48.734Z,41.57
2023-04-18T15:38:18.433Z,41.43
2023-04-18T15:40:44.980Z,41.37
2023-04-18T15:43:12.811Z,41.51
2023-04-18T15:45:39.327Z,41.75
2023-04-18T15:48:06.548Z,42.21
2023-04-18T15:50:36.469Z,41.72
2023-04-18T15:53:05.892Z,40.73
2023-04-18T15:55:32.360Z,40.70
2023-04-18T15:57:58.868Z,40.46
2023-04-18T16:00:25.420Z,40.82
2023-04-18T16:02:52.052Z,40.65
2023-04-18T16:05:18.862Z,40.13
2023-04-18T16:07:45.704Z,40.35
2023-04-18T16:10:12.795Z,39.96
2023-04-18T16:12:39.874Z,40.00
2023-04-18T16:15:08.917Z,40.22
2023-04-18T16:17:37.008Z,40.47
2023-04-18T16:20:06.020Z,40.22
2023-04-18T16:22:32.569Z,40.36
2023-04-18T16:24:59.058Z,40.46
2023-04-18T16:27:25.631Z,40.28
2023-04-18T16:30:24.067Z,39.41
2023-04-18T16:32:50.953Z,40.49
2023-04-18T16:35:17.520Z,40.21
2023-04-18T16:37:44.036Z,40.34
2023-04-18T16:40:10.842Z,40.50
2023-04-18T16:42:37.432Z,40.39
2023-04-18T16:45:04.581Z,40.80
2023-04-18T16:47:31.070Z,40.78
2023-04-18T16:49:57.636Z,41.02
2023-04-18T16:52:24.451Z,41.33
2023-04-18T16:54:52.567Z,41.30
2023-04-18T16:57:19.430Z,41.45
2023-04-18T16:59:45.928Z,41.29
2023-04-18T17:02:12.652Z,42.12
2023-04-18T17:04:39.790Z,42.36
2023-04-18T17:07:06.361Z,42.81
2023-04-18T17:09:32.874Z,42.34
2023-04-18T17:11:59.407Z,42.94
2023-04-18T17:14:25.971Z,43.22
2023-04-18T17:16:53.669Z,43.66
2023-04-18T17:19:21.242Z,43.61
2023-04-18T17:21:49.022Z,43.18
2023-04-18T17:24:18.522Z,43.25
2023-04-18T17:26:45.224Z,43.36
2023-04-18T17:29:11.771Z,43.40
2023-04-18T17:31:38.368Z,43.36
2023-04-18T17:34:04.977Z,43.29
2023-04-18T17:36:31.757Z,43.25
2023-04-18T17:39:06.343Z,42.48
2023-04-18T17:41:38.027Z,42.60
2023-04-18T17:44:07.348Z,43.32
2023-04-18T17:46:34.136Z,42.98
2023-04-18T17:49:00.797Z,43.30
2023-04-18T17:51:27.363Z,43.13
2023-04-18T17:53:54.895Z,43.25
2023-04-18T17:56:22.105Z,43.95
2023-04-18T17:58:49.332Z,44.50
2023-04-18T18:01:20.971Z,44.37
2023-04-18T18:03:48.703Z,44.78
2023-04-18T18:06:15.930Z,44.26
2023-04-18T18:08:43.501Z,44.49
2023-04-18T18:11:10.758Z,44.54
2023-04-18T18:13:38.985Z,45.09
2023-04-18T18:16:07.043Z,44.53
2023-04-18T18:18:33.594Z,44.71
2023-04-18T18:21:00.142Z,44.54
2023-04-18T18:23:26.707Z,44.72
2023-04-18T18:25:53.308Z,44.86
2023-04-18T18:28:19.817Z,45.11
2023-04-18T18:30:46.366Z,45.10
2023-04-18T18:33:12.895Z,45.28
2023-04-18T18:35:39.514Z,45.54
2023-04-18T18:38:06.338Z,45.71
2023-04-18T18:40:33.045Z,45.46
2023-04-18T18:42:59.638Z,45.84
2023-04-18T18:45:26.260Z,45.72
2023-04-18T18:47:52.797Z,45.40
2023-04-18T18:50:19.546Z,45.34
2023-04-18T18:52:46.259Z,45.77
2023-04-18T18:55:12.940Z,46.13
2023-04-18T18:57:39.551Z,45.69
2023-04-18T19:00:11.472Z,45.94
2023-04-18T19:02:39.488Z,45.88
2023-04-18T19:05:07.355Z,46.10
2023-04-18T19:07:33.878Z,46.07
2023-04-18T19:10:01.692Z,45.91
2023-04-18T19:12:28.990Z,45.40
2023-04-18T19:14:55.599Z,45.72
2023-04-18T19:17:24.488Z,45.41
2023-04-18T19:19:52.932Z,46.05
2023-04-18T19:22:19.479Z,45.94
2023-04-18T19:24:45.976Z,46.27
2023-04-18T19:27:12.504Z,45.96
2023-04-18T19:29:39.547Z,46.35
2023-04-18T19:32:06.478Z,46.53
2023-04-18T19:34:33.107Z,46.65
2023-04-18T19:37:01.102Z,46.82
2023-04-18T19:39:27.973Z,47.03
2023-04-18T19:41:54.546Z,46.97
2023-04-18T19:44:21.235Z,46.31
2023-04-18T19:46:47.690Z,46.70
2023-04-18T19:49:14.491Z,47.02
2023-04-18T19:51:41.199Z,47.02
2023-04-18T19:54:07.790Z,46.53
2023-04-18T19:56:34.261Z,46.71
2023-04-18T19:59:01.620Z,47.36
2023-04-18T20:01:29.411Z,47.58
2023-04-18T20:03:58.509Z,47.69
2023-04-18T20:06:28.764Z,47.76
2023-04-18T20:08:55.356Z,47.70
2023-04-18T20:11:22.203Z,47.61
2023-04-18T20:13:49.283Z,47.95
2023-04-18T20:16:16.762Z,48.58
2023-04-18T20:18:45.813Z,47.74
2023-04-18T20:21:12.317Z,48.01
2023-04-18T20:23:40.416Z,48.25
2023-04-18T20:26:07.279Z,48.31
2023-04-18T20:28:33.826Z,48.08
2023-04-18T20:31:01.365Z,48.57
2023-04-18T20:33:27.948Z,48.85
2023-04-18T20:35:54.718Z,48.55
2023-04-18T20:38:25.789Z,48.54
2023-04-18T20:40:53.875Z,49.19
2023-04-18T20:43:20.545Z,49.42
2023-04-18T20:45:51.460Z,49.93
2023-04-18T20:48:18.447Z,49.14
2023-04-18T20:50:50.733Z,49.76
2023-04-18T20:53:22.272Z,49.31
2023-04-18T20:55:48.907Z,49.23
2023-04-18T20:58:15.781Z,49.53
2023-04-18T21:00:43.620Z,50.44
2023-04-18T21:03:12.746Z,49.64
2023-04-18T21:05:39.500Z,49.40
2023-04-18T21:08:06.130Z,49.52
2023-04-18T21:10:32.882Z,49.36
2023-04-18T21:12:59.459Z,49.65
2023-04-18T21:15:25.959Z,49.77
2023-04-18T21:17:52.850Z,49.76
2023-04-18T21:20:19.912Z,49.96
2023-04-18T21:22:46.424Z,50.17
2023-04-18T21:25:12.989Z,49.97
2023-04-18T21:27:39.530Z,50.26
2023-04-18T21:30:06.931Z,49.64
2023-04-18T21:32:33.466Z,49.92
2023-04-18T21:35:01.024Z,50.16
2023-04-18T21:37:27.566Z,50.11
2023-04-18T21:39:54.035Z,49.87
2023-04-18T21:42:20.573Z,50.11
2023-04-18T21:44:47.060Z,50.19
2023-04-18T21:47:13.552Z,50.35
2023-04-18T21:49:42.572Z,50.45
2023-04-18T21:52:09.093Z,50.82
2023-04-18T21:54:35.619Z,50.80
2023-04-18T21:57:02.676Z,50.32
2023-04-18T21:59:29.693Z,50.12
2023-04-18T22:01:56.318Z,50.64
2023-04-18T22:04:26.005Z,51.40
2023-04-18T22:06:55.637Z,51.25
2023-04-18T22:09:22.838Z,50.83
2023-04-18T22:11:51.494Z,51.69
2023-04-18T22:14:19.947Z,50.55
2023-04-18T22:16:46.449Z,51.37
2023-04-18T22:19:14.105Z,52.05
2023-04-18T22:21:40.610Z,52.00
2023-04-18T22:24:08.558Z,51.65
2023-04-18T22:26:35.087Z,51.50
2023-04-18T22:29:01.599Z,51.32
2023-04-18T22:31:28.254Z,51.25
2023-04-18T22:33:54.732Z,51.53
2023-04-18T22:36:21.256Z,51.32
2023-04-18T22:38:47.699Z,51.36
2023-04-18T22:41:15.401Z,51.72
2023-04-18T22:43:41.925Z,51.88
2023-04-18T22:46:08.499Z,52.18
2023-04-18T22:48:35.129Z,51.93
2023-04-18T22:51:01.806Z,52.24
2023-04-18T22:53:28.543Z,51.82
2023-04-18T22:55:55.314Z,52.50
2023-04-18T22:58:21.786Z,51.61
2023-04-18T23:00:48.289Z,51.74
2023-04-18T23:03:14.920Z,51.58
2023-04-18T23:05:41.871Z,51.35
2023-04-18T23:08:08.443Z,51.82
2023-04-18T23:10:35.087Z,52.12
2023-04-18T23:13:01.544Z,52.82
2023-04-18T23:15:28.060Z,52.14
2023-04-18T23:17:54.683Z,52.46
2023-04-18T23:20:21.897Z,53.59
2023-04-18T23:22:51.283Z,53.49
2023-04-18T23:25:19.255Z,53.44
2023-04-18T23:27:45.797Z,53.18
2023-04-18T23:30:12.872Z,53.49
2023-04-18T23:32:39.612Z,53.93
2023-04-18T23:35:06.823Z,54.01
2023-04-18T23:37:33.321Z,53.48
2023-04-18T23:40:00.528Z,53.95
2023-04-18T23:42:27.352Z,53.58
2023-04-18T23:44:54.414Z,54.11
2023-04-18T23:47:21.402Z,53.64
2023-04-18T23:49:47.995Z,54.22
2023-04-18T23:52:14.480Z,53.87
2023-04-18T23:54:41.123Z,53.46
2023-04-18T23:57:07.632Z,52.68
2023-04-18T23:59:34.415Z,53.00
